Time;durP1;ratioP1;P1;durP2;ratioP2;P2;SDS_P1;SDS_P2;PMS_P1;PMS_P2;Temp;Humidity;BMP_temperature;BMP_pressure;BME280_temperature;BME280_humidity;BME280_pressure;Samples;Min_cycle;Max_cycle;Signal;HPM_P1;HPM_P2
2023/04/29 00:00:34;;;;;;;30.80;15.73;;;;;;;9.24;96.01;101581.09;5075073;28;20046;-76
2023/04/29 00:03:00;;;;;;;34.75;17.38;;;;;;;9.21;95.96;101583.78;5088820;28;20051;-76
2023/04/29 00:05:25;;;;;;;26.75;17.15;;;;;;;9.18;95.79;101582.06;5100562;28;20035;-76
2023/04/29 00:07:51;;;;;;;27.38;16.17;;;;;;;9.18;95.85;101586.44;5099569;28;20043;-76
2023/04/29 00:10:16;;;;;;;28.95;16.70;;;;;;;9.18;95.57;101589.06;5081972;28;20093;-76
2023/04/29 00:12:42;;;;;;;21.98;15.68;;;;;;;9.18;95.64;101587.31;5079471;28;20059;-76
2023/04/29 00:15:08;;;;;;;27.08;16.02;;;;;;;9.18;95.84;101587.31;5088612;28;20157;-76
2023/04/29 00:17:33;;;;;;;28.77;16.10;;;;;;;9.18;95.57;101591.69;5097195;28;20082;-76
2023/04/29 00:19:59;;;;;;;23.08;16.13;;;;;;;9.19;95.14;101588.19;5099633;28;20343;-76
2023/04/29 00:22:24;;;;;;;26.63;15.73;;;;;;;9.16;94.87;101599.56;5091639;28;20040;-76
2023/04/29 00:24:50;;;;;;;32.47;16.60;;;;;;;9.14;94.51;101595.25;5078120;28;20371;-76
2023/04/29 00:27:16;;;;;;;24.45;16.33;;;;;;;9.14;94.33;101595.25;5074443;28;20036;-76
2023/04/29 00:29:42;;;;;;;27.08;16.17;;;;;;;9.10;94.21;101604.94;5085315;28;20044;-76
2023/04/29 00:32:07;;;;;;;26.48;15.82;;;;;;;9.10;94.50;101604.94;5078944;28;20040;-76
2023/04/29 00:34:33;;;;;;;35.42;17.35;;;;;;;9.09;94.55;101611.03;5079439;28;20044;-76
2023/04/29 00:36:58;;;;;;;27.73;15.20;;;;;;;9.09;94.24;101615.41;5076562;28;20044;-76
2023/04/29 00:39:24;;;;;;;29.65;15.45;;;;;;;9.07;93.68;101614.59;5077948;28;20326;-76
2023/04/29 00:41:50;;;;;;;22.13;15.63;;;;;;;9.02;93.44;101623.41;5060700;28;20032;-76
2023/04/29 00:44:16;;;;;;;26.52;16.05;;;;;;;9.02;93.59;101614.69;5078549;28;20048;-76
2023/04/29 00:46:41;;;;;;;24.17;16.95;;;;;;;9.01;93.77;101620.81;5078137;28;20060;-76
2023/04/29 00:49:08;;;;;;;21.13;14.93;;;;;;;9.00;93.87;101616.47;5077853;28;20048;-76
2023/04/29 00:51:35;;;;;;;21.15;16.13;;;;;;;9.02;93.85;101619.91;5080865;28;20036;-76
2023/04/29 00:54:03;;;;;;;20.02;16.05;;;;;;;9.04;94.14;101623.38;5087778;28;20040;-76
2023/04/29 00:56:31;;;;;;;30.98;18.35;;;;;;;9.02;94.11;101612.94;5084475;28;20032;-76
2023/04/29 00:58:57;;;;;;;26.30;17.30;;;;;;;9.01;94.05;101626.88;5078831;28;20048;-76
2023/04/29 01:01:23;;;;;;;21.20;15.52;;;;;;;9.02;94.13;101623.41;5073065;28;20013;-76
2023/04/29 01:03:49;;;;;;;25.75;16.92;;;;;;;9.00;94.24;101627.78;5090777;28;20063;-76
2023/04/29 01:06:18;;;;;;;28.63;16.73;;;;;;;8.98;94.70;101629.56;5085853;28;20096;-76
2023/04/29 01:09:01;;;;;;;31.40;18.38;;;;;;;8.97;94.74;101638.31;5071433;28;20099;-76
2023/04/29 01:11:33;;;;;;;24.15;15.80;;;;;;;8.96;95.10;101633.09;5076479;28;20268;-76
2023/04/29 01:13:59;;;;;;;30.20;17.70;;;;;;;8.96;95.09;101641.78;5085970;28;20532;-76
2023/04/29 01:16:43;;;;;;;29.60;17.35;;;;;;;8.97;94.96;101635.69;5078668;28;20040;-76
2023/04/29 01:19:32;;;;;;;18.42;14.55;;;;;;;8.97;94.80;101640.91;5083320;28;20112;-76
2023/04/29 01:21:57;;;;;;;24.42;16.73;;;;;;;8.98;95.15;101641.75;5078862;28;20089;-76
2023/04/29 01:24:23;;;;;;;24.23;16.73;;;;;;;8.95;94.80;101647.03;5092849;28;20039;-76
2023/04/29 01:26:56;;;;;;;22.80;15.25;;;;;;;8.94;94.94;101640.13;5074170;28;20041;-76
2023/04/29 01:29:33;;;;;;;21.83;13.95;;;;;;;8.93;94.73;101641.00;5076785;28;20032;-76
2023/04/29 01:32:08;;;;;;;18.67;13.48;;;;;;;8.92;94.96;101645.38;5067713;28;20350;-76
2023/04/29 01:34:58;;;;;;;17.40;13.00;;;;;;;8.94;95.08;101650.56;5088790;28;20056;-76
2023/04/29 01:37:38;;;;;;;19.40;14.43;;;;;;;8.94;95.07;101650.56;5065016;28;20032;-76
2023/04/29 01:40:21;;;;;;;13.77;12.10;;;;;;;8.95;94.95;101649.66;5090750;28;20327;-76
2023/04/29 01:43:10;;;;;;;23.17;15.65;;;;;;;8.94;94.86;101645.34;5067140;28;20082;-76
2023/04/29 01:45:40;;;;;;;23.42;14.93;;;;;;;8.94;94.94;101650.56;5072701;28;20040;-76
2023/04/29 01:48:06;;;;;;;21.70;13.77;;;;;;;8.94;94.60;101650.56;5072521;28;20024;-76
2023/04/29 01:50:31;;;;;;;16.63;13.07;;;;;;;8.95;94.56;101652.28;5075096;28;20044;-76
2023/04/29 01:52:57;;;;;;;20.02;13.40;;;;;;;8.95;94.82;101650.53;5078512;28;20273;-76
2023/04/29 01:55:22;;;;;;;19.88;13.48;;;;;;;8.95;94.84;101652.28;5077863;28;20043;-76
2023/04/29 01:57:48;;;;;;;18.40;12.30;;;;;;;8.94;94.72;101646.19;5071088;28;20270;-76
2023/04/29 02:00:13;;;;;;;24.55;14.95;;;;;;;8.93;94.97;101648.84;5078426;28;20040;-76
2023/04/29 02:02:39;;;;;;;16.25;12.95;;;;;;;8.93;94.77;101654.06;5079955;28;20067;-75
2023/04/29 02:05:05;;;;;;;21.67;14.23;;;;;;;8.92;94.90;101658.44;5088713;28;20066;-76
2023/04/29 02:07:30;;;;;;;17.52;12.23;;;;;;;8.92;95.18;101655.81;5080842;28;20041;-76
2023/04/29 02:09:56;;;;;;;17.73;12.13;;;;;;;8.93;94.97;101657.56;5080674;28;20111;-76
2023/04/29 02:12:21;;;;;;;19.95;12.32;;;;;;;8.95;95.26;101662.72;5090152;28;20360;-76
2023/04/29 02:14:46;;;;;;;16.88;12.55;;;;;;;8.97;94.84;101666.19;5084077;28;20038;-76
2023/04/29 02:17:12;;;;;;;19.73;13.55;;;;;;;8.97;95.11;101663.59;5086765;28;20427;-76
2023/04/29 02:19:38;;;;;;;20.45;14.18;;;;;;;8.96;95.05;101674.91;5074702;28;20091;-76
2023/04/29 02:22:03;;;;;;;19.23;13.90;;;;;;;8.95;95.32;101675.78;5093101;28;20040;-76
2023/04/29 02:24:29;;;;;;;17.27;12.63;;;;;;;8.94;95.26;101682.78;5079703;28;20043;-76
2023/04/29 02:26:54;;;;;;;17.55;14.13;;;;;;;8.95;95.22;101679.28;5082410;28;20215;-76
2023/04/29 02:29:20;;;;;;;24.35;16.08;;;;;;;8.95;95.56;101684.50;5096683;28;20046;-76
2023/04/29 02:31:46;;;;;;;30.55;16.42;;;;;;;8.95;95.61;101683.63;5095802;28;20117;-76
2023/04/29 02:34:11;;;;;;;24.23;16.10;;;;;;;8.94;95.66;101692.38;5071865;28;20044;-76
2023/04/29 02:36:36;;;;;;;25.58;15.95;;;;;;;8.91;95.89;101688.03;5077031;28;20025;-76
2023/04/29 02:39:02;;;;;;;28.23;15.27;;;;;;;8.90;95.97;101691.56;5076990;28;20044;-76
2023/04/29 02:41:27;;;;;;;18.75;13.38;;;;;;;8.89;96.27;101695.06;5078508;28;20039;-76
2023/04/29 02:43:53;;;;;;;19.33;14.27;;;;;;;8.90;96.02;101701.16;5075741;28;20040;-76
2023/04/29 02:46:18;;;;;;;19.27;13.10;;;;;;;8.92;95.84;101704.59;5094524;28;20043;-76
2023/04/29 02:48:44;;;;;;;21.60;13.20;;;;;;;8.93;95.46;101706.31;5079706;28;20036;-76
2023/04/29 02:51:09;;;;;;;17.98;12.82;;;;;;;8.94;95.38;101703.66;5089144;28;20036;-76
2023/04/29 02:53:35;;;;;;;16.67;11.68;;;;;;;8.95;95.12;101710.63;5074549;28;20046;-76
2023/04/29 02:56:00;;;;;;;17.08;12.02;;;;;;;8.96;95.40;101706.25;5088820;28;20028;-76
2023/04/29 02:58:26;;;;;;;15.65;12.15;;;;;;;8.96;95.17;101714.09;5072752;28;20324;-76
2023/04/29 03:00:51;;;;;;;17.35;13.68;;;;;;;8.94;95.05;101711.50;5075208;28;20040;-76
2023/04/29 03:03:17;;;;;;;21.65;13.68;;;;;;;8.96;95.12;101721.94;5073451;28;20032;-76
2023/04/29 03:05:42;;;;;;;18.17;13.43;;;;;;;8.95;95.13;101723.69;5076201;28;20278;-76
2023/04/29 03:08:09;;;;;;;16.10;11.90;;;;;;;8.94;94.84;101728.94;5074202;28;20040;-76
2023/04/29 03:10:35;;;;;;;21.80;12.82;;;;;;;8.95;94.59;101723.69;5080392;28;20270;-76
2023/04/29 03:13:00;;;;;;;16.77;11.75;;;;;;;8.95;94.66;101715.84;5076955;28;20059;-76
2023/04/29 03:15:25;;;;;;;17.73;12.82;;;;;;;8.96;94.77;101727.16;5080731;28;20146;-76
2023/04/29 03:17:51;;;;;;;19.80;12.90;;;;;;;8.94;94.87;101719.34;5079864;28;20109;-76
2023/04/29 03:20:19;;;;;;;15.00;11.10;;;;;;;8.96;94.65;101725.41;5079849;28;20037;-76
2023/04/29 03:22:45;;;;;;;14.20;10.67;;;;;;;8.97;94.82;101721.06;5079548;28;20058;-76
2023/04/29 03:25:11;;;;;;;19.70;11.85;;;;;;;8.97;94.29;101726.28;5080172;28;20290;-76
2023/04/29 03:27:37;;;;;;;15.38;11.68;;;;;;;8.97;94.56;101729.75;5079202;28;20043;-76
2023/04/29 03:30:02;;;;;;;13.57;10.48;;;;;;;8.99;94.53;101737.56;5076990;28;20085;-76
2023/04/29 03:32:28;;;;;;;26.08;13.73;;;;;;;8.99;93.96;101730.56;5080542;28;20052;-76
2023/04/29 03:34:54;;;;;;;16.05;11.77;;;;;;;8.97;94.35;101729.75;5079194;28;20028;-76
2023/04/29 03:37:19;;;;;;;16.45;11.73;;;;;;;8.98;94.18;101741.91;5079449;28;20419;-76
2023/04/29 03:39:45;;;;;;;14.93;10.90;;;;;;;8.98;94.24;101736.69;5076455;28;20457;-76
2023/04/29 03:42:10;;;;;;;14.65;11.32;;;;;;;8.98;94.28;101739.28;5094294;28;20060;-76
2023/04/29 03:44:36;;;;;;;17.38;12.88;;;;;;;8.98;94.26;101735.81;5093852;28;20028;-76
2023/04/29 03:47:01;;;;;;;15.48;11.70;;;;;;;8.99;94.12;101735.78;5099779;28;20052;-76
2023/04/29 03:49:27;;;;;;;16.30;12.63;;;;;;;9.00;93.96;101744.50;5088565;28;20258;-76
2023/04/29 03:51:52;;;;;;;17.42;12.10;;;;;;;8.99;94.07;101751.47;5079190;28;20078;-76
2023/04/29 03:54:18;;;;;;;16.50;11.68;;;;;;;8.99;93.99;101748.88;5079617;28;20247;-76
2023/04/29 03:56:43;;;;;;;16.45;11.25;;;;;;;9.00;94.16;101750.59;5079476;28;20032;-76
2023/04/29 03:59:09;;;;;;;13.45;10.07;;;;;;;9.00;94.19;101742.75;5079400;28;20043;-76
2023/04/29 04:01:35;;;;;;;12.32;10.25;;;;;;;9.02;94.11;101750.53;5079718;28;20040;-76
2023/04/29 04:04:00;;;;;;;11.48;9.38;;;;;;;9.03;94.14;101749.66;5079212;28;20043;-76
2023/04/29 04:06:26;;;;;;;13.57;10.55;;;;;;;9.05;93.87;101749.63;5079441;28;20029;-76
2023/04/29 04:08:51;;;;;;;11.80;9.38;;;;;;;9.04;93.93;101748.78;5078470;28;20047;-76
2023/04/29 04:11:17;;;;;;;17.95;13.10;;;;;;;9.05;93.76;101755.72;5079894;28;20036;-76
2023/04/29 04:13:42;;;;;;;13.35;9.73;;;;;;;9.06;93.84;101749.63;5078071;28;20046;-76
2023/04/29 04:16:11;;;;;;;16.30;11.60;;;;;;;9.06;94.01;101759.19;5079887;28;20127;-76
2023/04/29 04:18:37;;;;;;;12.63;10.23;;;;;;;9.06;93.94;101767.91;5078541;28;20104;-76
2023/04/29 04:21:10;;;;;;;12.63;10.45;;;;;;;9.05;93.85;101768.78;5078967;28;20039;-76
2023/04/29 04:23:39;;;;;;;10.88;9.70;;;;;;;9.06;93.68;101772.25;5079338;28;20122;-76
2023/04/29 04:26:04;;;;;;;22.58;13.73;;;;;;;9.05;93.81;101765.31;5079033;28;20033;-76
2023/04/29 04:28:30;;;;;;;17.15;11.98;;;;;;;9.03;93.88;101774.03;5078659;28;20095;-76
2023/04/29 04:30:55;;;;;;;21.23;11.98;;;;;;;9.02;94.05;101774.94;5076989;28;20302;-76
2023/04/29 04:33:21;;;;;;;17.75;11.88;;;;;;;9.01;94.20;101773.22;5079403;28;20052;-76
2023/04/29 04:35:46;;;;;;;19.58;12.85;;;;;;;9.00;94.22;101774.13;5077730;28;20111;-76
2023/04/29 04:38:12;;;;;;;21.05;13.40;;;;;;;9.00;94.55;101783.69;5078998;28;20048;-76
2023/04/29 04:40:41;;;;;;;16.80;11.52;;;;;;;9.00;94.55;101787.19;5078756;28;20051;-76
2023/04/29 04:43:06;;;;;;;26.77;13.02;;;;;;;9.00;95.01;101789.78;5084808;28;20039;-76
2023/04/29 04:45:32;;;;;;;20.00;12.70;;;;;;;9.00;95.24;101788.91;5078752;28;20062;-76
2023/04/29 04:47:57;;;;;;;21.17;12.75;;;;;;;9.00;94.83;101792.41;5075658;28;20036;-76
2023/04/29 04:50:22;;;;;;;23.30;12.43;;;;;;;9.01;94.92;101799.34;5078916;28;20056;-76
2023/04/29 04:52:48;;;;;;;19.30;11.48;;;;;;;9.00;95.14;101800.25;5078355;28;20127;-76
2023/04/29 04:55:13;;;;;;;23.30;13.52;;;;;;;9.00;94.95;101802.84;5078575;28;20044;-76
2023/04/29 04:57:39;;;;;;;21.45;13.07;;;;;;;9.01;95.45;101815.00;5078047;28;20287;-76
2023/04/29 05:00:04;;;;;;;20.92;11.85;;;;;;;9.02;95.47;101818.47;5078667;28;20036;-76
2023/04/29 05:02:30;;;;;;;18.00;11.98;;;;;;;9.01;95.42;101820.25;5077959;28;20096;-76
2023/04/29 05:04:55;;;;;;;20.92;13.07;;;;;;;9.02;95.50;101818.47;5083354;28;20327;-76
2023/04/29 05:07:21;;;;;;;14.55;11.57;;;;;;;9.03;95.65;101822.81;5090040;28;20338;-76
2023/04/29 05:09:46;;;;;;;14.10;10.43;;;;;;;9.03;95.83;101828.06;5069412;28;20048;-76
2023/04/29 05:12:12;;;;;;;27.13;13.38;;;;;;;9.03;95.52;101828.91;5078574;28;20059;-76
2023/04/29 05:14:37;;;;;;;18.85;12.75;;;;;;;9.03;96.14;101830.66;5078227;28;20044;-76
2023/04/29 05:17:03;;;;;;;23.27;12.73;;;;;;;9.04;96.04;101840.25;5098149;28;20032;-76
2023/04/29 05:19:28;;;;;;;21.35;13.00;;;;;;;9.04;96.27;101835.00;5095620;28;20044;-76
2023/04/29 05:21:53;;;;;;;22.10;13.02;;;;;;;9.06;96.43;101842.78;5078026;28;20066;-76
2023/04/29 05:24:19;;;;;;;26.17;12.95;;;;;;;9.04;96.67;101845.47;5078053;28;20051;-76
2023/04/29 05:26:44;;;;;;;35.60;14.50;;;;;;;9.05;96.65;101843.72;5077246;28;20048;-76
2023/04/29 05:29:10;;;;;;;26.27;14.93;;;;;;;9.05;97.22;101847.16;5080762;28;20172;-76
2023/04/29 05:31:37;;;;;;;26.45;14.60;;;;;;;9.05;97.36;101849.78;5079821;28;20247;-76
2023/04/29 05:34:05;;;;;;;30.10;15.52;;;;;;;9.06;97.56;101853.25;5083005;28;20043;-76
2023/04/29 05:36:31;;;;;;;28.20;15.05;;;;;;;9.05;97.80;101851.53;5076778;28;20042;-76
2023/04/29 05:38:57;;;;;;;19.55;14.35;;;;;;;9.06;97.57;101859.38;5076996;28;20032;-76
2023/04/29 05:41:23;;;;;;;31.70;15.48;;;;;;;9.08;97.79;101861.91;5084575;28;20345;-76
2023/04/29 05:43:49;;;;;;;30.17;15.98;;;;;;;9.07;97.77;101863.69;5072113;28;20063;-76
2023/04/29 05:46:15;;;;;;;27.33;15.48;;;;;;;9.10;97.38;101868.00;5079292;28;20331;-76
2023/04/29 05:48:41;;;;;;;32.95;17.05;;;;;;;9.11;97.53;101867.09;5077588;28;20040;-76
2023/04/29 05:51:06;;;;;;;38.40;18.65;;;;;;;9.12;97.68;101863.63;5077028;28;20100;-76
2023/04/29 05:53:32;;;;;;;30.95;16.50;;;;;;;9.12;97.54;101874.06;5077524;28;20066;-76
2023/04/29 05:55:57;;;;;;;27.10;15.68;;;;;;;9.12;97.66;101882.75;5075168;28;20373;-76
2023/04/29 05:58:24;;;;;;;26.33;15.25;;;;;;;9.15;97.59;101884.44;5077859;28;20431;-76
2023/04/29 06:00:50;;;;;;;36.92;17.13;;;;;;;9.15;97.32;101895.78;5076557;28;20371;-76
2023/04/29 06:03:15;;;;;;;27.23;15.55;;;;;;;9.13;97.16;101886.22;5077052;28;20242;-76
2023/04/29 06:05:41;;;;;;;33.03;16.45;;;;;;;9.12;96.92;101889.75;5075371;28;20059;-76
2023/04/29 06:08:06;;;;;;;29.75;15.02;;;;;;;9.12;96.57;101898.44;5076832;28;20033;-76
2023/04/29 06:10:32;;;;;;;23.50;14.38;;;;;;;9.12;96.38;101906.28;5076707;28;20032;-76
2023/04/29 06:12:58;;;;;;;23.60;14.40;;;;;;;9.11;95.97;101904.53;5078526;28;20044;-76
2023/04/29 06:15:23;;;;;;;27.30;13.85;;;;;;;9.12;95.88;101908.03;5076493;28;20429;-76
2023/04/29 06:17:49;;;;;;;27.73;14.60;;;;;;;9.13;96.04;101913.25;5075044;28;20052;-76
2023/04/29 06:20:14;;;;;;;22.25;14.55;;;;;;;9.15;95.78;101915.81;5077129;28;20033;-76
2023/04/29 06:22:40;;;;;;;26.17;13.50;;;;;;;9.16;95.21;101913.16;5075349;28;20044;-76
2023/04/29 06:25:05;;;;;;;20.83;13.20;;;;;;;9.16;94.70;101912.31;5077321;28;20085;-76
2023/04/29 06:27:30;;;;;;;20.05;13.30;;;;;;;9.17;94.60;101914.06;5079027;28;20067;-76
2023/04/29 06:29:56;;;;;;;21.42;13.13;;;;;;;9.18;94.88;101916.63;5075908;28;20114;-76
2023/04/29 06:32:22;;;;;;;17.45;11.68;;;;;;;9.22;94.63;101925.25;5076029;28;20036;-76
2023/04/29 06:34:47;;;;;;;19.83;13.30;;;;;;;9.25;94.34;101921.75;5075317;28;20354;-76
2023/04/29 06:37:13;;;;;;;27.25;12.85;;;;;;;9.25;93.37;101925.22;5076654;28;20036;-76
2023/04/29 06:39:38;;;;;;;20.92;12.45;;;;;;;9.28;93.02;101921.66;5075854;28;20060;-76
2023/04/29 06:42:04;;;;;;;17.27;11.52;;;;;;;9.30;92.58;101938.22;5075816;28;20020;-76
2023/04/29 06:44:29;;;;;;;16.55;12.00;;;;;;;9.32;92.72;101936.44;5083858;28;20028;-76
2023/04/29 06:46:55;;;;;;;22.92;12.10;;;;;;;9.38;92.74;101938.94;5076293;28;20362;-76
2023/04/29 06:49:20;;;;;;;17.17;11.77;;;;;;;9.41;92.26;101947.56;5078743;28;20039;-76
2023/04/29 06:51:46;;;;;;;16.13;10.38;;;;;;;9.45;91.90;101943.16;5081536;28;21111;-76
2023/04/29 06:54:12;;;;;;;16.15;10.65;;;;;;;9.51;91.34;101960.47;5084698;28;20048;-76
2023/04/29 06:56:37;;;;;;;14.23;10.38;;;;;;;9.51;89.13;101950.88;5074118;28;20364;-76
2023/04/29 06:59:03;;;;;;;15.82;9.75;;;;;;;9.52;88.71;101963.06;5085037;28;20036;-76
2023/04/29 07:01:28;;;;;;;18.63;10.40;;;;;;;9.54;88.05;101966.53;5077352;28;20037;-76
2023/04/29 07:03:54;;;;;;;13.32;9.95;;;;;;;9.57;88.00;101966.47;5080590;28;20370;-76
2023/04/29 07:06:19;;;;;;;18.42;11.40;;;;;;;9.60;87.78;101976.00;5078213;28;20394;-76
2023/04/29 07:08:45;;;;;;;17.10;10.93;;;;;;;9.60;87.52;101981.22;5078427;28;20048;-76
2023/04/29 07:11:10;;;;;;;18.10;10.05;;;;;;;9.60;87.80;101984.75;5078618;28;20052;-76
2023/04/29 07:13:36;;;;;;;23.77;11.43;;;;;;;9.61;87.76;101991.69;5081065;28;20089;-77
2023/04/29 07:16:01;;;;;;;15.25;10.73;;;;;;;9.62;88.06;101997.75;5080659;28;20138;-77
2023/04/29 07:18:26;;;;;;;17.33;9.85;;;;;;;9.64;88.34;101990.78;5078247;28;20047;-77
2023/04/29 07:20:52;;;;;;;17.30;9.43;;;;;;;9.68;87.83;101995.06;5081389;28;20143;-77
2023/04/29 07:23:17;;;;;;;13.82;9.55;;;;;;;9.72;87.75;102001.94;5075061;28;20043;-77
2023/04/29 07:25:42;;;;;;;14.40;9.70;;;;;;;9.77;87.65;102000.09;5073167;28;20085;-77
2023/04/29 07:28:08;;;;;;;17.23;9.23;;;;;;;9.81;87.13;102000.91;5079227;28;20032;-77
2023/04/29 07:30:33;;;;;;;18.20;10.50;;;;;;;9.86;86.73;102001.69;5079992;28;20044;-77
2023/04/29 07:32:59;;;;;;;16.80;9.45;;;;;;;9.92;86.58;102005.94;5078516;28;20119;-77
2023/04/29 07:35:25;;;;;;;17.50;9.65;;;;;;;9.96;86.75;102008.44;5077066;28;20040;-77
2023/04/29 07:37:50;;;;;;;10.77;8.48;;;;;;;10.02;86.37;102017.09;5080116;28;20251;-77
2023/04/29 07:40:16;;;;;;;13.32;8.18;;;;;;;10.06;86.54;102016.13;5077386;28;20048;-77
2023/04/29 07:42:42;;;;;;;13.68;8.23;;;;;;;10.10;85.69;102017.81;5077418;28;20032;-77
2023/04/29 07:45:08;;;;;;;11.98;8.07;;;;;;;10.12;85.50;102016.88;5076496;28;20066;-77
2023/04/29 07:47:33;;;;;;;15.77;8.40;;;;;;;10.15;85.68;102016.81;5077641;28;20041;-77
2023/04/29 07:49:58;;;;;;;16.15;8.40;;;;;;;10.15;85.01;102014.22;5077215;28;20040;-77
2023/04/29 07:52:24;;;;;;;10.57;7.43;;;;;;;10.15;85.08;102016.81;5072222;28;20097;-77
2023/04/29 07:54:49;;;;;;;11.73;7.15;;;;;;;10.19;85.68;102017.63;5075512;28;20255;-77
2023/04/29 07:57:15;;;;;;;11.13;7.75;;;;;;;10.23;85.47;102021.03;5075905;28;20041;-77
2023/04/29 07:59:40;;;;;;;18.30;8.27;;;;;;;10.28;85.00;102016.59;5080317;28;20035;-77
2023/04/29 08:02:05;;;;;;;11.13;8.02;;;;;;;10.33;85.07;102019.97;5073263;28;20056;-77
2023/04/29 08:04:31;;;;;;;13.02;8.20;;;;;;;10.35;85.42;102023.41;5074124;28;20055;-77
2023/04/29 08:06:56;;;;;;;15.63;7.80;;;;;;;10.35;85.91;102016.44;5072679;28;20039;-77
2023/04/29 08:09:22;;;;;;;14.52;7.40;;;;;;;10.37;86.05;102019.88;5077834;28;20040;-77
2023/04/29 08:11:47;;;;;;;20.65;8.30;;;;;;;10.44;87.86;102020.63;5074856;28;20113;-77
2023/04/29 08:14:12;;;;;;;12.68;7.20;;;;;;;10.49;87.31;102018.75;5062120;28;20058;-77
2023/04/29 08:16:38;;;;;;;10.82;7.35;;;;;;;10.54;86.63;102026.53;5077821;28;20355;-77
2023/04/29 08:19:03;;;;;;;13.23;7.93;;;;;;;10.53;85.83;102027.41;5076673;28;20060;-77
2023/04/29 08:21:30;;;;;;;13.35;7.30;;;;;;;10.53;86.27;102028.28;5076749;28;20150;-77
2023/04/29 08:23:56;;;;;;;15.25;7.25;;;;;;;10.52;85.95;102030.94;5077227;28;20445;-77
2023/04/29 08:26:21;;;;;;;9.95;7.03;;;;;;;10.52;86.09;102039.66;5076570;28;20040;-77
2023/04/29 08:28:47;;;;;;;14.68;8.43;;;;;;;10.54;86.36;102037.00;5077411;28;20115;-77
2023/04/29 08:31:17;;;;;;;14.40;7.80;;;;;;;10.55;85.83;102047.47;5075889;28;20028;-77
2023/04/29 08:33:43;;;;;;;11.30;7.40;;;;;;;10.55;85.56;102042.22;5076701;28;20063;-77
2023/04/29 08:36:08;;;;;;;15.20;7.53;;;;;;;10.55;85.28;102046.56;5077722;28;20051;-77
2023/04/29 08:38:33;;;;;;;10.02;6.57;;;;;;;10.53;85.18;102043.13;5076621;28;20048;-77
2023/04/29 08:41:00;;;;;;;11.63;6.97;;;;;;;10.53;85.90;102053.59;5078339;28;20037;-77
2023/04/29 08:43:25;;;;;;;12.75;7.15;;;;;;;10.53;85.42;102048.38;5077496;28;20048;-77
2023/04/29 08:45:52;;;;;;;14.23;7.85;;;;;;;10.53;84.84;102061.47;5084198;28;20063;-77
2023/04/29 08:48:18;;;;;;;12.68;7.45;;;;;;;10.54;84.81;102050.94;5075741;28;20048;-77
2023/04/29 08:50:43;;;;;;;18.70;7.75;;;;;;;10.59;85.35;102050.88;5077892;28;20258;-77
2023/04/29 08:53:11;;;;;;;11.27;8.02;;;;;;;10.66;86.50;102049.84;5075931;28;20274;-77
2023/04/29 08:55:47;;;;;;;8.77;6.88;;;;;;;10.74;84.39;102055.75;5075088;28;20055;-77
2023/04/29 08:58:14;;;;;;;13.45;7.30;;;;;;;10.84;84.63;102063.41;5077018;28;20048;-77
2023/04/29 09:00:41;;;;;;;8.52;6.70;;;;;;;10.90;83.48;102061.53;5076961;28;20024;-77
2023/04/29 09:03:18;;;;;;;13.98;8.45;;;;;;;10.89;82.54;102065.03;5082547;28;20044;-77
2023/04/29 09:05:48;;;;;;;18.58;7.47;;;;;;;10.85;83.05;102063.38;5076611;28;20040;-77
2023/04/29 09:08:14;;;;;;;12.93;7.35;;;;;;;10.85;82.81;102062.53;5087332;28;20036;-77
2023/04/29 09:10:41;;;;;;;12.60;7.38;;;;;;;10.88;82.99;102065.09;5070595;28;20044;-77
2023/04/29 09:13:07;;;;;;;10.02;6.63;;;;;;;10.92;83.10;102059.75;5076630;28;20312;-77
2023/04/29 09:15:36;;;;;;;11.15;6.13;;;;;;;10.96;82.19;102065.78;5077099;28;20078;-77
2023/04/29 09:18:02;;;;;;;14.13;7.57;;;;;;;11.01;81.42;102066.53;5072881;28;20131;-77
2023/04/29 09:20:28;;;;;;;11.18;7.55;;;;;;;11.07;81.73;102058.53;5078323;28;20048;-77
2023/04/29 09:23:02;;;;;;;14.77;7.43;;;;;;;11.17;81.91;102064.44;5077526;28;20067;-77
2023/04/29 09:25:28;;;;;;;12.38;7.03;;;;;;;11.25;81.19;102066.88;5074501;28;20047;-77
2023/04/29 09:27:55;;;;;;;11.57;6.30;;;;;;;11.33;80.27;102076.28;5082655;28;20024;-77
2023/04/29 09:30:21;;;;;;;10.85;6.13;;;;;;;11.39;78.29;102067.38;5077333;28;20351;-77
2023/04/29 09:33:08;;;;;;;9.50;5.65;;;;;;;11.49;78.76;102074.13;5076008;28;20389;-77
2023/04/29 09:35:33;;;;;;;10.13;6.47;;;;;;;11.59;80.11;102076.50;5076448;28;20323;-77
2023/04/29 09:38:10;;;;;;;7.47;6.68;;;;;;;11.68;79.02;102077.16;5077734;28;20055;-77
2023/04/29 09:40:35;;;;;;;9.07;6.30;;;;;;;11.68;78.44;102071.06;5078769;28;20031;-77
2023/04/29 09:43:01;;;;;;;10.38;6.00;;;;;;;11.68;77.70;102081.56;5073933;28;20036;-77
2023/04/29 09:45:37;;;;;;;8.90;5.68;;;;;;;11.65;77.23;102089.50;5081846;28;20039;-77
2023/04/29 09:48:04;;;;;;;7.88;5.30;;;;;;;11.61;75.05;102087.84;5075061;28;20036;-77
2023/04/29 09:50:31;;;;;;;6.10;5.45;;;;;;;11.62;76.46;102089.56;5077284;28;20235;-77
2023/04/29 09:52:57;;;;;;;8.93;5.97;;;;;;;11.64;77.17;102090.38;5075541;28;20041;-77
2023/04/29 09:55:23;;;;;;;7.65;5.88;;;;;;;11.61;76.09;102090.47;5076608;28;20102;-77
2023/04/29 09:57:49;;;;;;;11.40;6.13;;;;;;;11.60;76.73;102091.38;5075865;28;20044;-77
2023/04/29 10:00:15;;;;;;;13.70;7.55;;;;;;;11.58;77.79;102098.41;5076917;28;20036;-77
2023/04/29 10:02:42;;;;;;;8.30;4.97;;;;;;;11.59;77.44;102093.13;5075923;28;20075;-77
2023/04/29 10:05:09;;;;;;;8.48;5.65;;;;;;;11.67;77.49;102092.94;5076410;28;20036;-77
2023/04/29 10:07:34;;;;;;;7.88;6.15;;;;;;;11.75;78.13;102104.13;5092550;28;20063;-78
2023/04/29 10:10:04;;;;;;;13.07;6.45;;;;;;;11.77;76.80;102097.06;5076704;28;20200;-77
2023/04/29 10:12:32;;;;;;;9.13;6.20;;;;;;;11.79;77.52;102099.63;5077801;28;20055;-77
2023/04/29 10:15:12;;;;;;;9.73;6.77;;;;;;;11.77;77.18;102099.69;5074404;28;20056;-77
2023/04/29 10:18:06;;;;;;;13.32;7.03;;;;;;;11.75;76.86;102109.38;5076756;28;20360;-77
2023/04/29 10:20:33;;;;;;;14.23;7.20;;;;;;;11.75;77.31;102103.22;5080977;28;20096;-77
2023/04/29 10:22:59;;;;;;;12.50;6.32;;;;;;;11.77;77.37;102104.94;5084344;28;20036;-77
2023/04/29 10:25:26;;;;;;;8.23;6.00;;;;;;;11.81;76.24;102113.59;5076866;28;20044;-77
2023/04/29 10:27:54;;;;;;;6.00;5.30;;;;;;;11.88;76.49;102104.66;5076505;28;20342;-77
2023/04/29 10:30:20;;;;;;;7.75;6.43;;;;;;;11.97;76.99;102109.69;5076903;28;20343;-77
2023/04/29 10:32:48;;;;;;;9.13;5.95;;;;;;;12.07;75.55;102103.28;5075038;28;20243;-77
2023/04/29 10:35:14;;;;;;;9.98;6.85;;;;;;;12.18;75.43;102105.63;5084620;28;20032;-77
2023/04/29 10:37:41;;;;;;;8.32;6.82;;;;;;;12.21;74.27;102095.03;5088205;28;20063;-77
2023/04/29 10:40:11;;;;;;;7.78;6.70;;;;;;;12.21;74.21;102104.69;5075585;28;20038;-77
2023/04/29 10:42:43;;;;;;;7.65;5.80;;;;;;;12.18;73.66;102094.25;5076953;28;20064;-77
2023/04/29 10:45:35;;;;;;;7.72;5.88;;;;;;;12.14;73.45;102092.63;5073560;28;20098;-77
2023/04/29 10:48:10;;;;;;;9.38;6.55;;;;;;;12.14;74.23;102095.25;5072497;28;20376;-77
2023/04/29 10:50:48;;;;;;;12.25;6.60;;;;;;;12.10;73.74;102095.34;5073160;28;20135;-77
2023/04/29 10:53:18;;;;;;;10.75;7.55;;;;;;;12.15;74.04;102104.84;5096042;28;20239;-77
2023/04/29 10:55:55;;;;;;;12.10;7.00;;;;;;;12.23;73.95;102101.09;5079337;28;20066;-77
2023/04/29 10:58:43;;;;;;;8.57;6.22;;;;;;;12.31;72.44;102103.50;5077054;28;20078;-77
2023/04/29 11:01:16;;;;;;;10.13;6.80;;;;;;;12.32;72.46;102102.63;5073957;28;20147;-77
2023/04/29 11:03:49;;;;;;;9.65;6.63;;;;;;;12.32;72.47;102107.88;5076438;28;20040;-77
2023/04/29 11:06:15;;;;;;;8.15;5.50;;;;;;;12.27;70.48;102100.13;5069785;28;20493;-77
2023/04/29 11:08:42;;;;;;;7.00;6.30;;;;;;;12.27;70.71;102100.13;5076223;28;20078;-77
2023/04/29 11:11:08;;;;;;;9.32;5.88;;;;;;;12.33;70.67;102103.47;5076504;28;20032;-77
2023/04/29 11:13:38;;;;;;;6.43;5.82;;;;;;;12.38;69.98;102104.22;5080041;28;20359;-77
2023/04/29 11:16:04;;;;;;;8.05;6.18;;;;;;;12.41;69.06;102107.63;5071367;28;20033;-77
2023/04/29 11:18:30;;;;;;;7.60;6.00;;;;;;;12.45;70.48;102104.00;5077028;28;20395;-77